sensor_id;sensor_type;location;lat;lon;timestamp;pressure;altitude;pressure_sealevel;temperature;humidity
41800;BME280;27468;47.460;19.034;2024-01-30T00:01:36;102799.44;;;-1.51;96.50
41800;BME280;27468;47.460;19.034;2024-01-30T00:04:02;102794.63;;;-1.58;96.71
41800;BME280;27468;47.460;19.034;2024-01-30T00:06:27;102741.97;;;-1.85;96.47
41800;BME280;27468;47.460;19.034;2024-01-30T00:08:53;102809.22;;;-1.72;96.73
41800;BME280;27468;47.460;19.034;2024-01-30T00:11:18;102823.47;;;-1.66;97.42
41800;BME280;27468;47.460;19.034;2024-01-30T00:13:44;102798.81;;;-1.74;96.96
41800;BME280;27468;47.460;19.034;2024-01-30T00:16:20;102787.50;;;-1.87;97.35
41800;BME280;27468;47.460;19.034;2024-01-30T00:18:45;102827.31;;;-1.72;97.80
41800;BME280;27468;47.460;19.034;2024-01-30T00:21:11;102819.84;;;-1.81;98.04
41800;BME280;27468;47.460;19.034;2024-01-30T00:23:36;102831.13;;;-1.67;97.20
41800;BME280;27468;47.460;19.034;2024-01-30T00:26:01;102804.72;;;-1.88;97.53
41800;BME280;27468;47.460;19.034;2024-01-30T00:28:27;102802.25;;;-1.73;96.95
41800;BME280;27468;47.460;19.034;2024-01-30T00:30:52;102804.94;;;-1.72;96.30
41800;BME280;27468;47.460;19.034;2024-01-30T00:33:18;102818.81;;;-1.58;95.73
41800;BME280;27468;47.460;19.034;2024-01-30T00:35:43;102835.81;;;-1.37;95.62
41800;BME280;27468;47.460;19.034;2024-01-30T00:38:08;102831.06;;;-1.55;95.81
41800;BME280;27468;47.460;19.034;2024-01-30T00:40:34;102824.03;;;-1.70;95.77
41800;BME280;27468;47.460;19.034;2024-01-30T00:42:59;102845.03;;;-1.78;96.56
41800;BME280;27468;47.460;19.034;2024-01-30T00:45:25;102844.53;;;-1.73;97.43
41800;BME280;27468;47.460;19.034;2024-01-30T00:47:50;102838.91;;;-1.92;97.64
41800;BME280;27468;47.460;19.034;2024-01-30T00:50:15;102843.81;;;-1.83;98.12
41800;BME280;27468;47.460;19.034;2024-01-30T00:52:41;102821.00;;;-1.89;97.93
41800;BME280;27468;47.460;19.034;2024-01-30T00:55:07;102821.44;;;-1.83;97.26
41800;BME280;27468;47.460;19.034;2024-01-30T00:57:32;102807.22;;;-2.01;98.24
41800;BME280;27468;47.460;19.034;2024-01-30T00:59:58;102839.31;;;-1.86;98.91
41800;BME280;27468;47.460;19.034;2024-01-30T01:02:23;102805.56;;;-2.12;98.65
41800;BME280;27468;47.460;19.034;2024-01-30T01:04:48;102801.53;;;-2.09;99.13
41800;BME280;27468;47.460;19.034;2024-01-30T01:07:14;102835.84;;;-1.86;98.71
41800;BME280;27468;47.460;19.034;2024-01-30T01:09:39;102827.28;;;-1.85;98.29
41800;BME280;27468;47.460;19.034;2024-01-30T01:12:05;102838.75;;;-1.82;98.09
41800;BME280;27468;47.460;19.034;2024-01-30T01:14:30;102817.47;;;-2.03;99.07
41800;BME280;27468;47.460;19.034;2024-01-30T01:16:56;102835.38;;;-1.81;98.59
41800;BME280;27468;47.460;19.034;2024-01-30T01:19:21;102796.25;;;-2.10;99.04
41800;BME280;27468;47.460;19.034;2024-01-30T01:21:47;102822.91;;;-1.86;98.93
41800;BME280;27468;47.460;19.034;2024-01-30T01:24:12;102820.09;;;-1.64;97.58
41800;BME280;27468;47.460;19.034;2024-01-30T01:26:38;102800.13;;;-1.92;97.32
41800;BME280;27468;47.460;19.034;2024-01-30T01:29:03;102796.84;;;-1.89;97.86
41800;BME280;27468;47.460;19.034;2024-01-30T01:31:38;102794.91;;;-1.80;96.50
41800;BME280;27468;47.460;19.034;2024-01-30T01:34:12;102792.56;;;-1.89;96.35
41800;BME280;27468;47.460;19.034;2024-01-30T01:36:38;102784.03;;;-1.88;96.20
41800;BME280;27468;47.460;19.034;2024-01-30T01:39:03;102817.00;;;-1.97;96.67
41800;BME280;27468;47.460;19.034;2024-01-30T01:41:32;102827.06;;;-1.88;97.23
41800;BME280;27468;47.460;19.034;2024-01-30T01:43:58;102825.19;;;-1.91;97.26
41800;BME280;27468;47.460;19.034;2024-01-30T01:46:26;102812.25;;;-1.91;97.18
41800;BME280;27468;47.460;19.034;2024-01-30T01:48:53;102767.34;;;-2.05;95.91
41800;BME280;27468;47.460;19.034;2024-01-30T01:51:19;102807.03;;;-1.79;95.40
41800;BME280;27468;47.460;19.034;2024-01-30T01:53:45;102794.94;;;-1.92;95.73
41800;BME280;27468;47.460;19.034;2024-01-30T01:56:10;102812.81;;;-1.95;96.03
41800;BME280;27468;47.460;19.034;2024-01-30T01:58:36;102824.38;;;-1.90;96.26
41800;BME280;27468;47.460;19.034;2024-01-30T02:01:03;102825.03;;;-1.81;96.18
41800;BME280;27468;47.460;19.034;2024-01-30T02:03:30;102805.00;;;-2.08;96.11
41800;BME280;27468;47.460;19.034;2024-01-30T02:05:56;102766.38;;;-2.18;96.35
41800;BME280;27468;47.460;19.034;2024-01-30T02:08:21;102784.72;;;-1.90;95.41
41800;BME280;27468;47.460;19.034;2024-01-30T02:10:47;102786.13;;;-2.07;95.36
41800;BME280;27468;47.460;19.034;2024-01-30T02:13:13;102768.44;;;-2.26;96.26
41800;BME280;27468;47.460;19.034;2024-01-30T02:15:38;102784.84;;;-2.25;96.89
41800;BME280;27468;47.460;19.034;2024-01-30T02:18:03;102762.03;;;-2.31;96.44
41800;BME280;27468;47.460;19.034;2024-01-30T02:20:30;102800.53;;;-2.11;96.55
41800;BME280;27468;47.460;19.034;2024-01-30T02:22:58;102815.56;;;-2.05;97.19
41800;BME280;27468;47.460;19.034;2024-01-30T02:25:39;102814.25;;;-1.87;96.41
41800;BME280;27468;47.460;19.034;2024-01-30T02:28:12;102762.22;;;-2.16;96.19
41800;BME280;27468;47.460;19.034;2024-01-30T02:30:38;102812.69;;;-1.85;95.83
41800;BME280;27468;47.460;19.034;2024-01-30T02:33:04;102742.13;;;-2.20;95.53
41800;BME280;27468;47.460;19.034;2024-01-30T02:35:29;102761.31;;;-2.17;95.45
41800;BME280;27468;47.460;19.034;2024-01-30T02:37:54;102811.03;;;-1.96;95.64
41800;BME280;27468;47.460;19.034;2024-01-30T02:40:20;102797.94;;;-2.11;95.53
41800;BME280;27468;47.460;19.034;2024-01-30T02:42:45;102794.28;;;-2.26;95.93
41800;BME280;27468;47.460;19.034;2024-01-30T02:45:11;102808.53;;;-2.31;96.57
41800;BME280;27468;47.460;19.034;2024-01-30T02:47:36;102815.63;;;-2.28;96.84
41800;BME280;27468;47.460;19.034;2024-01-30T02:50:02;102797.91;;;-2.36;96.85
41800;BME280;27468;47.460;19.034;2024-01-30T02:52:27;102780.75;;;-2.35;96.22
41800;BME280;27468;47.460;19.034;2024-01-30T02:54:52;102813.72;;;-2.31;96.58
41800;BME280;27468;47.460;19.034;2024-01-30T02:57:18;102774.78;;;-2.34;96.01
41800;BME280;27468;47.460;19.034;2024-01-30T02:59:43;102796.75;;;-2.27;95.97
41800;BME280;27468;47.460;19.034;2024-01-30T03:02:08;102751.56;;;-2.46;95.59
41800;BME280;27468;47.460;19.034;2024-01-30T03:04:34;102743.91;;;-2.44;95.06
41800;BME280;27468;47.460;19.034;2024-01-30T03:06:59;102798.41;;;-2.16;94.91
41800;BME280;27468;47.460;19.034;2024-01-30T03:09:24;102724.44;;;-2.64;95.17
41800;BME280;27468;47.460;19.034;2024-01-30T03:11:50;102747.56;;;-2.66;96.03
41800;BME280;27468;47.460;19.034;2024-01-30T03:14:15;102793.66;;;-2.35;95.93
41800;BME280;27468;47.460;19.034;2024-01-30T03:16:41;102730.03;;;-2.58;95.56
41800;BME280;27468;47.460;19.034;2024-01-30T03:19:06;102782.13;;;-2.27;94.99
41800;BME280;27468;47.460;19.034;2024-01-30T03:21:33;102779.88;;;-2.22;94.74
41800;BME280;27468;47.460;19.034;2024-01-30T03:23:58;102808.16;;;-2.12;94.57
41800;BME280;27468;47.460;19.034;2024-01-30T03:26:24;102800.34;;;-2.25;94.45
41800;BME280;27468;47.460;19.034;2024-01-30T03:28:50;102798.50;;;-2.40;95.23
41800;BME280;27468;47.460;19.034;2024-01-30T03:31:15;102799.28;;;-2.41;95.63
41800;BME280;27468;47.460;19.034;2024-01-30T03:33:41;102758.81;;;-2.77;95.88
41800;BME280;27468;47.460;19.034;2024-01-30T03:36:07;102820.94;;;-2.39;96.34
41800;BME280;27468;47.460;19.034;2024-01-30T03:38:33;102768.31;;;-2.64;95.92
41800;BME280;27468;47.460;19.034;2024-01-30T03:40:58;102801.06;;;-2.40;95.78
41800;BME280;27468;47.460;19.034;2024-01-30T03:43:24;102786.94;;;-2.56;96.36
41800;BME280;27468;47.460;19.034;2024-01-30T03:45:49;102776.50;;;-2.58;96.47
41800;BME280;27468;47.460;19.034;2024-01-30T03:48:15;102807.13;;;-2.39;96.07
41800;BME280;27468;47.460;19.034;2024-01-30T03:50:40;102777.63;;;-2.54;96.49
41800;BME280;27468;47.460;19.034;2024-01-30T03:53:05;102791.09;;;-2.47;96.25
41800;BME280;27468;47.460;19.034;2024-01-30T03:55:31;102806.84;;;-2.30;95.45
41800;BME280;27468;47.460;19.034;2024-01-30T03:57:56;102796.13;;;-2.37;95.23
41800;BME280;27468;47.460;19.034;2024-01-30T04:00:21;102768.84;;;-2.45;94.99
41800;BME280;27468;47.460;19.034;2024-01-30T04:02:47;102772.34;;;-2.56;95.23
41800;BME280;27468;47.460;19.034;2024-01-30T04:05:12;102706.94;;;-2.80;94.71
41800;BME280;27468;47.460;19.034;2024-01-30T04:07:37;102774.44;;;-2.39;94.74
41800;BME280;27468;47.460;19.034;2024-01-30T04:10:03;102677.03;;;-2.89;94.47
41800;BME280;27468;47.460;19.034;2024-01-30T04:12:31;102788.63;;;-2.45;94.61
41800;BME280;27468;47.460;19.034;2024-01-30T04:14:56;102782.66;;;-2.44;95.21
41800;BME280;27468;47.460;19.034;2024-01-30T04:17:21;102736.88;;;-2.58;94.56
41800;BME280;27468;47.460;19.034;2024-01-30T04:19:48;102774.78;;;-2.34;94.12
41800;BME280;27468;47.460;19.034;2024-01-30T04:22:13;102766.84;;;-2.60;94.41
41800;BME280;27468;47.460;19.034;2024-01-30T04:24:39;102784.47;;;-2.55;95.21
41800;BME280;27468;47.460;19.034;2024-01-30T04:27:04;102778.97;;;-2.48;94.85
41800;BME280;27468;47.460;19.034;2024-01-30T04:29:30;102757.44;;;-2.60;94.71
41800;BME280;27468;47.460;19.034;2024-01-30T04:31:55;102770.56;;;-2.69;94.81
41800;BME280;27468;47.460;19.034;2024-01-30T04:34:20;102734.28;;;-2.95;95.86
41800;BME280;27468;47.460;19.034;2024-01-30T04:36:46;102767.09;;;-2.69;95.55
41800;BME280;27468;47.460;19.034;2024-01-30T04:39:11;102779.34;;;-2.78;95.56
41800;BME280;27468;47.460;19.034;2024-01-30T04:41:38;102775.88;;;-2.79;96.43
41800;BME280;27468;47.460;19.034;2024-01-30T04:44:03;102711.63;;;-3.11;96.27
41800;BME280;27468;47.460;19.034;2024-01-30T04:46:28;102799.06;;;-2.55;95.52
41800;BME280;27468;47.460;19.034;2024-01-30T04:48:54;102764.72;;;-2.66;94.96
41800;BME280;27468;47.460;19.034;2024-01-30T04:51:19;102788.09;;;-2.64;95.22
41800;BME280;27468;47.460;19.034;2024-01-30T04:53:44;102788.97;;;-2.52;94.84
41800;BME280;27468;47.460;19.034;2024-01-30T04:56:10;102775.41;;;-2.61;94.59
41800;BME280;27468;47.460;19.034;2024-01-30T04:58:36;102757.06;;;-2.89;94.74
41800;BME280;27468;47.460;19.034;2024-01-30T05:01:02;102745.03;;;-2.89;95.40
41800;BME280;27468;47.460;19.034;2024-01-30T05:03:27;102797.41;;;-2.55;94.70
41800;BME280;27468;47.460;19.034;2024-01-30T05:05:53;102803.91;;;-2.48;94.61
41800;BME280;27468;47.460;19.034;2024-01-30T05:08:18;102774.28;;;-2.65;94.64
41800;BME280;27468;47.460;19.034;2024-01-30T05:10:43;102805.47;;;-2.50;94.97
41800;BME280;27468;47.460;19.034;2024-01-30T05:13:09;102733.81;;;-2.89;94.39
41800;BME280;27468;47.460;19.034;2024-01-30T05:15:35;102779.34;;;-2.67;94.07
41800;BME280;27468;47.460;19.034;2024-01-30T05:18:00;102781.41;;;-2.97;95.19
41800;BME280;27468;47.460;19.034;2024-01-30T05:20:25;102791.38;;;-2.90;95.70
41800;BME280;27468;47.460;19.034;2024-01-30T05:22:53;102763.00;;;-2.90;95.23
41800;BME280;27468;47.460;19.034;2024-01-30T05:25:18;102795.03;;;-2.63;94.70
41800;BME280;27468;47.460;19.034;2024-01-30T05:27:44;102774.41;;;-2.75;94.51
41800;BME280;27468;47.460;19.034;2024-01-30T05:30:10;102803.00;;;-2.60;94.22
41800;BME280;27468;47.460;19.034;2024-01-30T05:32:35;102829.72;;;-2.48;94.31
41800;BME280;27468;47.460;19.034;2024-01-30T05:35:00;102803.25;;;-2.69;94.30
41800;BME280;27468;47.460;19.034;2024-01-30T05:37:26;102805.81;;;-2.69;94.37
41800;BME280;27468;47.460;19.034;2024-01-30T05:39:51;102829.63;;;-2.50;94.41
41800;BME280;27468;47.460;19.034;2024-01-30T05:42:17;102800.00;;;-2.67;94.11
41800;BME280;27468;47.460;19.034;2024-01-30T05:44:42;102747.28;;;-3.05;94.12
41800;BME280;27468;47.460;19.034;2024-01-30T05:47:08;102821.09;;;-2.72;94.44
41800;BME280;27468;47.460;19.034;2024-01-30T05:49:33;102829.84;;;-2.70;94.46
41800;BME280;27468;47.460;19.034;2024-01-30T05:51:59;102786.53;;;-2.86;94.46
41800;BME280;27468;47.460;19.034;2024-01-30T05:54:25;102826.25;;;-2.60;94.07
41800;BME280;27468;47.460;19.034;2024-01-30T05:56:50;102817.38;;;-2.64;94.11
41800;BME280;27468;47.460;19.034;2024-01-30T05:59:15;102813.81;;;-2.78;94.25
41800;BME280;27468;47.460;19.034;2024-01-30T06:01:47;102818.41;;;-2.74;94.16
41800;BME280;27468;47.460;19.034;2024-01-30T06:04:13;102836.69;;;-2.59;93.98
41800;BME280;27468;47.460;19.034;2024-01-30T06:06:38;102811.56;;;-2.73;93.93
41800;BME280;27468;47.460;19.034;2024-01-30T06:09:04;102835.91;;;-2.58;93.84
41800;BME280;27468;47.460;19.034;2024-01-30T06:11:29;102812.56;;;-2.71;93.89
41800;BME280;27468;47.460;19.034;2024-01-30T06:13:54;102836.03;;;-2.56;93.75
41800;BME280;27468;47.460;19.034;2024-01-30T06:16:20;102833.66;;;-2.53;94.03
41800;BME280;27468;47.460;19.034;2024-01-30T06:18:47;102811.00;;;-2.69;93.72
41800;BME280;27468;47.460;19.034;2024-01-30T06:21:13;102811.56;;;-2.73;93.85
41800;BME280;27468;47.460;19.034;2024-01-30T06:23:38;102821.44;;;-2.79;94.31
41800;BME280;27468;47.460;19.034;2024-01-30T06:26:04;102831.56;;;-2.94;94.96
41800;BME280;27468;47.460;19.034;2024-01-30T06:28:30;102840.84;;;-2.73;95.10
41800;BME280;27468;47.460;19.034;2024-01-30T06:30:55;102817.94;;;-2.80;94.76
41800;BME280;27468;47.460;19.034;2024-01-30T06:33:20;102826.81;;;-2.76;94.59
41800;BME280;27468;47.460;19.034;2024-01-30T06:35:46;102850.50;;;-2.58;94.71
41800;BME280;27468;47.460;19.034;2024-01-30T06:38:12;102841.28;;;-2.55;94.11
41800;BME280;27468;47.460;19.034;2024-01-30T06:40:40;102837.03;;;-2.54;93.88
41800;BME280;27468;47.460;19.034;2024-01-30T06:43:06;102850.59;;;-2.45;94.03
41800;BME280;27468;47.460;19.034;2024-01-30T06:45:32;102842.53;;;-2.61;94.42
41800;BME280;27468;47.460;19.034;2024-01-30T06:47:59;102829.41;;;-2.64;94.10
41800;BME280;27468;47.460;19.034;2024-01-30T06:50:25;102850.50;;;-2.47;94.08
41800;BME280;27468;47.460;19.034;2024-01-30T06:52:50;102844.53;;;-2.46;93.63
41800;BME280;27468;47.460;19.034;2024-01-30T06:55:16;102826.22;;;-2.37;93.55
41800;BME280;27468;47.460;19.034;2024-01-30T06:57:41;102844.88;;;-2.53;93.92
41800;BME280;27468;47.460;19.034;2024-01-30T07:00:07;102839.94;;;-2.38;93.63
41800;BME280;27468;47.460;19.034;2024-01-30T07:02:32;102786.50;;;-2.51;92.92
41800;BME280;27468;47.460;19.034;2024-01-30T07:04:58;102820.53;;;-2.20;92.84
41800;BME280;27468;47.460;19.034;2024-01-30T07:07:23;102857.34;;;-1.99;92.63
41800;BME280;27468;47.460;19.034;2024-01-30T07:09:49;102831.84;;;-2.06;92.54
41800;BME280;27468;47.460;19.034;2024-01-30T07:12:17;102854.09;;;-1.96;92.68
41800;BME280;27468;47.460;19.034;2024-01-30T07:14:43;102863.31;;;-2.00;93.18
41800;BME280;27468;47.460;19.034;2024-01-30T07:17:08;102856.88;;;-1.93;93.29
41800;BME280;27468;47.460;19.034;2024-01-30T07:19:33;102825.22;;;-2.03;93.14
41800;BME280;27468;47.460;19.034;2024-01-30T07:22:00;102857.22;;;-1.89;93.63
41800;BME280;27468;47.460;19.034;2024-01-30T07:24:26;102839.38;;;-1.97;93.96
41800;BME280;27468;47.460;19.034;2024-01-30T07:26:52;102839.00;;;-1.90;94.14
41800;BME280;27468;47.460;19.034;2024-01-30T07:29:18;102859.06;;;-1.75;93.59
41800;BME280;27468;47.460;19.034;2024-01-30T07:31:43;102854.03;;;-1.60;93.87
41800;BME280;27468;47.460;19.034;2024-01-30T07:34:09;102865.31;;;-1.71;94.89
41800;BME280;27468;47.460;19.034;2024-01-30T07:36:34;102834.38;;;-1.70;95.30
41800;BME280;27468;47.460;19.034;2024-01-30T07:38:59;102839.94;;;-1.52;94.51
41800;BME280;27468;47.460;19.034;2024-01-30T07:41:25;102843.25;;;-1.41;95.10
41800;BME280;27468;47.460;19.034;2024-01-30T07:43:50;102837.19;;;-1.42;95.14
41800;BME280;27468;47.460;19.034;2024-01-30T07:46:16;102826.63;;;-1.45;95.52
41800;BME280;27468;47.460;19.034;2024-01-30T07:48:42;102826.19;;;-1.26;95.68
41800;BME280;27468;47.460;19.034;2024-01-30T07:51:07;102820.41;;;-1.22;95.43
41800;BME280;27468;47.460;19.034;2024-01-30T07:53:32;102830.16;;;-1.05;95.95
41800;BME280;27468;47.460;19.034;2024-01-30T07:55:59;102794.94;;;-1.16;96.52
41800;BME280;27468;47.460;19.034;2024-01-30T07:58:24;102844.03;;;-0.91;96.77
41800;BME280;27468;47.460;19.034;2024-01-30T08:00:52;102821.81;;;-0.87;96.81
41800;BME280;27468;47.460;19.034;2024-01-30T08:03:18;102824.59;;;-0.97;98.26
41800;BME280;27468;47.460;19.034;2024-01-30T08:05:43;102834.28;;;-0.82;98.24
41800;BME280;27468;47.460;19.034;2024-01-30T08:08:08;102811.16;;;-0.79;98.61
41800;BME280;27468;47.460;19.034;2024-01-30T08:10:34;102776.31;;;-0.84;98.69
41800;BME280;27468;47.460;19.034;2024-01-30T08:12:59;102815.19;;;-0.43;98.65
41800;BME280;27468;47.460;19.034;2024-01-30T08:15:24;102822.34;;;-0.25;98.57
41800;BME280;27468;47.460;19.034;2024-01-30T08:17:50;102819.72;;;-0.12;98.43
41800;BME280;27468;47.460;19.034;2024-01-30T08:20:20;102805.81;;;0.00;98.19
41800;BME280;27468;47.460;19.034;2024-01-30T08:22:47;102786.31;;;0.07;98.60
41800;BME280;27468;47.460;19.034;2024-01-30T08:25:12;102776.25;;;0.26;98.13
41800;BME280;27468;47.460;19.034;2024-01-30T08:27:38;102828.84;;;0.81;97.39
41800;BME280;27468;47.460;19.034;2024-01-30T08:30:05;102758.91;;;0.70;97.71
41800;BME280;27468;47.460;19.034;2024-01-30T08:32:31;102810.19;;;1.18;97.75
41800;BME280;27468;47.460;19.034;2024-01-30T08:34:56;102833.25;;;1.43;97.52
41800;BME280;27468;47.460;19.034;2024-01-30T08:37:22;102845.16;;;1.54;97.25
41800;BME280;27468;47.460;19.034;2024-01-30T08:39:47;102822.44;;;1.20;99.24
41800;BME280;27468;47.460;19.034;2024-01-30T08:42:12;102858.91;;;1.37;99.76
41800;BME280;27468;47.460;19.034;2024-01-30T08:44:38;102825.91;;;1.50;99.66
41800;BME280;27468;47.460;19.034;2024-01-30T08:47:04;102828.94;;;1.58;99.46
41800;BME280;27468;47.460;19.034;2024-01-30T08:49:29;102817.19;;;1.50;99.23
41800;BME280;27468;47.460;19.034;2024-01-30T08:51:54;102858.78;;;1.81;98.71
41800;BME280;27468;47.460;19.034;2024-01-30T08:54:19;102867.72;;;2.17;96.73
41800;BME280;27468;47.460;19.034;2024-01-30T08:56:45;102832.97;;;2.16;95.85
41800;BME280;27468;47.460;19.034;2024-01-30T08:59:10;102818.09;;;2.30;94.71
41800;BME280;27468;47.460;19.034;2024-01-30T09:01:36;102799.47;;;2.06;95.40
41800;BME280;27468;47.460;19.034;2024-01-30T09:04:01;102835.66;;;2.18;96.81
41800;BME280;27468;47.460;19.034;2024-01-30T09:06:27;102843.69;;;2.39;96.79
41800;BME280;27468;47.460;19.034;2024-01-30T09:08:54;102837.97;;;2.62;95.16
41800;BME280;27468;47.460;19.034;2024-01-30T09:11:19;102830.91;;;2.59;94.71
41800;BME280;27468;47.460;19.034;2024-01-30T09:13:44;102796.34;;;2.46;94.43
41800;BME280;27468;47.460;19.034;2024-01-30T09:16:10;102792.19;;;2.49;93.45
41800;BME280;27468;47.460;19.034;2024-01-30T09:18:35;102829.06;;;2.41;94.36
41800;BME280;27468;47.460;19.034;2024-01-30T09:21:00;102816.66;;;2.53;93.74
41800;BME280;27468;47.460;19.034;2024-01-30T09:23:27;102831.47;;;2.54;93.97
41800;BME280;27468;47.460;19.034;2024-01-30T09:25:53;102814.41;;;2.43;94.23
41800;BME280;27468;47.460;19.034;2024-01-30T09:28:18;102834.16;;;2.72;93.33
41800;BME280;27468;47.460;19.034;2024-01-30T09:30:43;102809.19;;;2.59;93.66
41800;BME280;27468;47.460;19.034;2024-01-30T09:33:09;102822.03;;;2.56;94.86
41800;BME280;27468;47.460;19.034;2024-01-30T09:35:36;102808.97;;;2.38;95.40
41800;BME280;27468;47.460;19.034;2024-01-30T09:38:01;102804.16;;;2.46;94.97
41800;BME280;27468;47.460;19.034;2024-01-30T09:40:27;102819.91;;;2.65;94.08
41800;BME280;27468;47.460;19.034;2024-01-30T09:42:53;102796.91;;;2.56;94.42
41800;BME280;27468;47.460;19.034;2024-01-30T09:45:20;102816.81;;;2.90;92.89
41800;BME280;27468;47.460;19.034;2024-01-30T09:47:48;102804.84;;;2.76;92.97
41800;BME280;27468;47.460;19.034;2024-01-30T09:50:14;102780.94;;;2.67;93.62
41800;BME280;27468;47.460;19.034;2024-01-30T09:52:40;102794.50;;;2.77;93.49
41800;BME280;27468;47.460;19.034;2024-01-30T09:55:07;102788.81;;;2.68;94.12
41800;BME280;27468;47.460;19.034;2024-01-30T09:57:34;102809.06;;;2.91;94.88
41800;BME280;27468;47.460;19.034;2024-01-30T10:00:00;102788.31;;;2.93;94.38
41800;BME280;27468;47.460;19.034;2024-01-30T10:02:25;102831.00;;;3.13;94.76
41800;BME280;27468;47.460;19.034;2024-01-30T10:04:51;102808.44;;;3.31;93.74
41800;BME280;27468;47.460;19.034;2024-01-30T10:07:18;102775.66;;;3.36;92.41
41800;BME280;27468;47.460;19.034;2024-01-30T10:09:44;102777.75;;;3.62;91.21
41800;BME280;27468;47.460;19.034;2024-01-30T10:12:09;102828.91;;;4.15;89.74
41800;BME280;27468;47.460;19.034;2024-01-30T10:14:41;102826.16;;;4.12;88.84
41800;BME280;27468;47.460;19.034;2024-01-30T10:17:08;102801.44;;;4.04;88.69
41800;BME280;27468;47.460;19.034;2024-01-30T10:19:34;102792.63;;;4.21;87.12
41800;BME280;27468;47.460;19.034;2024-01-30T10:22:00;102807.88;;;4.31;86.23
41800;BME280;27468;47.460;19.034;2024-01-30T10:24:27;102785.38;;;3.95;87.19
41800;BME280;27468;47.460;19.034;2024-01-30T10:26:54;102793.47;;;4.01;87.75
41800;BME280;27468;47.460;19.034;2024-01-30T10:29:20;102783.50;;;4.12;87.14
41800;BME280;27468;47.460;19.034;2024-01-30T10:31:45;102761.00;;;3.94;87.49
41800;BME280;27468;47.460;19.034;2024-01-30T10:34:13;102800.88;;;4.11;87.54
41800;BME280;27468;47.460;19.034;2024-01-30T10:36:46;102782.06;;;3.99;87.50
41800;BME280;27468;47.460;19.034;2024-01-30T10:39:17;102785.97;;;4.09;87.69
41800;BME280;27468;47.460;19.034;2024-01-30T10:41:47;102781.91;;;4.15;88.04
41800;BME280;27468;47.460;19.034;2024-01-30T10:44:16;102778.06;;;4.46;86.75
41800;BME280;27468;47.460;19.034;2024-01-30T10:46:46;102788.34;;;4.62;85.76
41800;BME280;27468;47.460;19.034;2024-01-30T10:49:14;102787.38;;;4.60;86.16
41800;BME280;27468;47.460;19.034;2024-01-30T10:51:40;102760.94;;;4.52;86.32
41800;BME280;27468;47.460;19.034;2024-01-30T10:54:07;102760.28;;;4.79;85.04
41800;BME280;27468;47.460;19.034;2024-01-30T10:56:37;102758.25;;;4.92;83.52
41800;BME280;27468;47.460;19.034;2024-01-30T10:59:03;102754.94;;;4.96;83.50
41800;BME280;27468;47.460;19.034;2024-01-30T11:01:29;102723.75;;;4.80;83.18
41800;BME280;27468;47.460;19.034;2024-01-30T11:03:55;102750.25;;;5.10;82.01
41800;BME280;27468;47.460;19.034;2024-01-30T11:06:24;102753.53;;;5.27;80.93
41800;BME280;27468;47.460;19.034;2024-01-30T11:09:10;102754.41;;;5.27;80.63
41800;BME280;27468;47.460;19.034;2024-01-30T11:11:50;102738.16;;;5.12;80.49
41800;BME280;27468;47.460;19.034;2024-01-30T11:14:16;102740.00;;;4.94;80.99
41800;BME280;27468;47.460;19.034;2024-01-30T11:16:42;102731.09;;;4.89;81.44
41800;BME280;27468;47.460;19.034;2024-01-30T11:19:11;102738.66;;;5.04;81.79
41800;BME280;27468;47.460;19.034;2024-01-30T11:21:43;102732.47;;;5.02;81.66
41800;BME280;27468;47.460;19.034;2024-01-30T11:24:08;102723.63;;;4.98;80.95
41800;BME280;27468;47.460;19.034;2024-01-30T11:26:35;102713.81;;;4.92;80.28
41800;BME280;27468;47.460;19.034;2024-01-30T11:29:03;102688.84;;;4.78;80.59
41800;BME280;27468;47.460;19.034;2024-01-30T11:31:29;102688.72;;;4.75;80.24
41800;BME280;27468;47.460;19.034;2024-01-30T11:33:56;102678.38;;;4.78;79.82
41800;BME280;27468;47.460;19.034;2024-01-30T11:36:25;102667.84;;;4.77;80.04
41800;BME280;27468;47.460;19.034;2024-01-30T11:38:51;102735.09;;;5.24;79.13
41800;BME280;27468;47.460;19.034;2024-01-30T11:41:17;102728.47;;;5.10;79.15
41800;BME280;27468;47.460;19.034;2024-01-30T11:43:43;102723.41;;;5.14;78.82
41800;BME280;27468;47.460;19.034;2024-01-30T11:46:09;102694.78;;;5.17;78.02
41800;BME280;27468;47.460;19.034;2024-01-30T11:48:35;102731.84;;;5.29;78.58
41800;BME280;27468;47.460;19.034;2024-01-30T11:51:00;102688.59;;;5.15;78.40
41800;BME280;27468;47.460;19.034;2024-01-30T11:53:27;102601.63;;;4.76;77.84
41800;BME280;27468;47.460;19.034;2024-01-30T11:55:53;102693.44;;;5.28;77.53
41800;BME280;27468;47.460;19.034;2024-01-30T11:58:18;102669.78;;;5.03;78.83
41800;BME280;27468;47.460;19.034;2024-01-30T12:00:53;102683.53;;;5.20;78.44
41800;BME280;27468;47.460;19.034;2024-01-30T12:03:18;102685.28;;;5.21;78.08
41800;BME280;27468;47.460;19.034;2024-01-30T12:05:44;102707.16;;;5.23;78.37
41800;BME280;27468;47.460;19.034;2024-01-30T12:08:15;102699.22;;;5.20;78.52
41800;BME280;27468;47.460;19.034;2024-01-30T12:10:42;102690.09;;;5.32;77.89
41800;BME280;27468;47.460;19.034;2024-01-30T12:13:07;102676.53;;;5.19;78.50
41800;BME280;27468;47.460;19.034;2024-01-30T12:15:33;102663.72;;;5.26;77.74
41800;BME280;27468;47.460;19.034;2024-01-30T12:18:06;102680.59;;;5.35;77.81
41800;BME280;27468;47.460;19.034;2024-01-30T12:20:31;102666.69;;;5.36;78.00
41800;BME280;27468;47.460;19.034;2024-01-30T12:22:56;102646.41;;;5.30;76.71
41800;BME280;27468;47.460;19.034;2024-01-30T12:25:22;102667.22;;;5.49;76.47
41800;BME280;27468;47.460;19.034;2024-01-30T12:27:49;102667.16;;;5.48;75.89
41800;BME280;27468;47.460;19.034;2024-01-30T12:30:15;102642.72;;;5.47;74.46
41800;BME280;27468;47.460;19.034;2024-01-30T12:32:42;102656.19;;;5.58;73.36
41800;BME280;27468;47.460;19.034;2024-01-30T12:35:15;102666.53;;;5.55;72.66
41800;BME280;27468;47.460;19.034;2024-01-30T12:37:44;102657.09;;;5.58;72.60